sensor_id;sensor_type;location;lat;lon;timestamp;pressure;altitude;pressure_sealevel;temperature;humidity
34658;BME280;20865;43.312;27.152;2022-07-10T00:02:13;99885.41;;;30.35;31.87
34658;BME280;20865;43.312;27.152;2022-07-10T00:04:40;99886.98;;;30.34;31.96
34658;BME280;20865;43.312;27.152;2022-07-10T00:07:08;99885.74;;;30.36;31.86
34658;BME280;20865;43.312;27.152;2022-07-10T00:09:35;99888.86;;;30.37;31.81
34658;BME280;20865;43.312;27.152;2022-07-10T00:12:03;99886.75;;;30.40;31.87
34658;BME280;20865;43.312;27.152;2022-07-10T00:14:31;99880.59;;;30.37;31.81
34658;BME280;20865;43.312;27.152;2022-07-10T00:16:59;99881.08;;;30.37;31.94
34658;BME280;20865;43.312;27.152;2022-07-10T00:19:26;99874.06;;;30.34;31.89
34658;BME280;20865;43.312;27.152;2022-07-10T00:21:54;99883.19;;;30.35;31.88
34658;BME280;20865;43.312;27.152;2022-07-10T00:24:22;99878.89;;;30.32;31.89
34658;BME280;20865;43.312;27.152;2022-07-10T00:26:49;99881.32;;;30.31;31.95
34658;BME280;20865;43.312;27.152;2022-07-10T00:29:18;99877.71;;;30.31;32.07
34658;BME280;20865;43.312;27.152;2022-07-10T00:31:45;99884.44;;;30.28;32.16
34658;BME280;20865;43.312;27.152;2022-07-10T00:34:13;99876.91;;;30.22;32.03
34658;BME280;20865;43.312;27.152;2022-07-10T00:36:40;99887.59;;;30.21;31.92
34658;BME280;20865;43.312;27.152;2022-07-10T00:39:10;99890.70;;;30.18;31.98
34658;BME280;20865;43.312;27.152;2022-07-10T00:41:37;99888.80;;;30.14;32.22
34658;BME280;20865;43.312;27.152;2022-07-10T00:44:05;99890.70;;;30.14;32.26
34658;BME280;20865;43.312;27.152;2022-07-10T00:46:33;99895.72;;;30.10;32.23
34658;BME280;20865;43.312;27.152;2022-07-10T00:49:01;99890.38;;;30.09;32.42
34658;BME280;20865;43.312;27.152;2022-07-10T00:51:30;99888.54;;;30.01;32.40
34658;BME280;20865;43.312;27.152;2022-07-10T00:53:59;99887.86;;;30.03;32.27
34658;BME280;20865;43.312;27.152;2022-07-10T00:56:28;99884.28;;;29.99;32.28
34658;BME280;20865;43.312;27.152;2022-07-10T00:58:56;99879.13;;;29.96;32.42
34658;BME280;20865;43.312;27.152;2022-07-10T01:01:24;99875.00;;;29.96;32.62
34658;BME280;20865;43.312;27.152;2022-07-10T01:03:52;99873.30;;;29.90;32.60
34658;BME280;20865;43.312;27.152;2022-07-10T01:06:19;99873.66;;;29.87;32.42
34658;BME280;20865;43.312;27.152;2022-07-10T01:08:47;99874.51;;;29.88;32.64
34658;BME280;20865;43.312;27.152;2022-07-10T01:11:15;99875.75;;;29.85;32.47
34658;BME280;20865;43.312;27.152;2022-07-10T01:13:44;99876.11;;;29.82;32.68
34658;BME280;20865;43.312;27.152;2022-07-10T01:16:12;99878.89;;;29.78;32.68
34658;BME280;20865;43.312;27.152;2022-07-10T01:18:40;99879.44;;;29.70;32.85
34658;BME280;20865;43.312;27.152;2022-07-10T01:23:53;99876.89;;;29.56;33.19
34658;BME280;20865;43.312;27.152;2022-07-10T01:26:22;99870.73;;;29.54;33.26
34658;BME280;20865;43.312;27.152;2022-07-10T01:28:51;99875.23;;;29.47;33.49
34658;BME280;20865;43.312;27.152;2022-07-10T01:31:20;99869.56;;;29.44;33.46
34658;BME280;20865;43.312;27.152;2022-07-10T01:33:48;99872.33;;;29.40;33.50
34658;BME280;20865;43.312;27.152;2022-07-10T01:36:17;99871.14;;;29.34;33.56
34658;BME280;20865;43.312;27.152;2022-07-10T01:38:45;99871.84;;;29.28;33.71
34658;BME280;20865;43.312;27.152;2022-07-10T01:41:12;99866.03;;;29.23;33.72
34658;BME280;20865;43.312;27.152;2022-07-10T01:43:40;99871.02;;;29.19;33.99
34658;BME280;20865;43.312;27.152;2022-07-10T01:46:09;99861.91;;;29.15;33.86
34658;BME280;20865;43.312;27.152;2022-07-10T01:48:39;99861.25;;;29.13;34.06
34658;BME280;20865;43.312;27.152;2022-07-10T01:51:08;99861.96;;;29.03;34.27
34658;BME280;20865;43.312;27.152;2022-07-10T01:53:37;99856.66;;;29.01;34.32
34658;BME280;20865;43.312;27.152;2022-07-10T01:56:07;99855.42;;;28.95;34.47
34658;BME280;20865;43.312;27.152;2022-07-10T01:58:35;99855.78;;;28.88;34.51
34658;BME280;20865;43.312;27.152;2022-07-10T02:01:06;99853.72;;;28.82;34.80
34658;BME280;20865;43.312;27.152;2022-07-10T02:03:33;99857.17;;;28.72;35.05
34658;BME280;20865;43.312;27.152;2022-07-10T02:06:19;99858.22;;;28.71;35.12
34658;BME280;20865;43.312;27.152;2022-07-10T02:08:47;99850.48;;;28.62;35.28
34658;BME280;20865;43.312;27.152;2022-07-10T02:11:15;99855.13;;;28.58;35.21
34658;BME280;20865;43.312;27.152;2022-07-10T02:13:42;99853.77;;;28.54;35.30
34658;BME280;20865;43.312;27.152;2022-07-10T02:16:10;99859.27;;;28.49;35.26
34658;BME280;20865;43.312;27.152;2022-07-10T02:18:38;99848.27;;;28.41;35.43
34658;BME280;20865;43.312;27.152;2022-07-10T02:21:06;99856.34;;;28.43;35.27
34658;BME280;20865;43.312;27.152;2022-07-10T02:23:34;99854.45;;;28.43;35.18
34658;BME280;20865;43.312;27.152;2022-07-10T02:26:02;99857.20;;;28.39;35.21
34658;BME280;20865;43.312;27.152;2022-07-10T02:28:29;99858.25;;;28.38;35.10
34658;BME280;20865;43.312;27.152;2022-07-10T02:30:57;99854.92;;;28.35;35.20
34658;BME280;20865;43.312;27.152;2022-07-10T02:33:25;99850.14;;;28.33;35.34
34658;BME280;20865;43.312;27.152;2022-07-10T02:35:53;99847.73;;;28.30;35.30
34658;BME280;20865;43.312;27.152;2022-07-10T02:38:20;99859.23;;;28.25;35.57
34658;BME280;20865;43.312;27.152;2022-07-10T02:40:48;99856.13;;;28.24;35.46
34658;BME280;20865;43.312;27.152;2022-07-10T02:43:15;99856.31;;;28.22;35.73
34658;BME280;20865;43.312;27.152;2022-07-10T02:45:43;99854.75;;;28.20;35.69
34658;BME280;20865;43.312;27.152;2022-07-10T02:48:11;99857.83;;;28.17;35.76
34658;BME280;20865;43.312;27.152;2022-07-10T02:50:38;99861.09;;;28.16;35.80
34658;BME280;20865;43.312;27.152;2022-07-10T02:53:06;99855.27;;;28.15;35.81
34658;BME280;20865;43.312;27.152;2022-07-10T02:55:34;99856.13;;;28.16;35.74
34658;BME280;20865;43.312;27.152;2022-07-10T02:58:01;99861.28;;;28.11;35.84
34658;BME280;20865;43.312;27.152;2022-07-10T03:00:30;99857.50;;;28.08;36.00
34658;BME280;20865;43.312;27.152;2022-07-10T03:02:58;99858.88;;;28.04;36.08
34658;BME280;20865;43.312;27.152;2022-07-10T03:05:26;99874.13;;;28.02;35.96
34658;BME280;20865;43.312;27.152;2022-07-10T03:07:53;99872.08;;;28.00;36.09
34658;BME280;20865;43.312;27.152;2022-07-10T03:10:21;99876.34;;;27.94;36.10
34658;BME280;20865;43.312;27.152;2022-07-10T03:12:48;99879.94;;;27.95;36.22
34658;BME280;20865;43.312;27.152;2022-07-10T03:15:16;99885.77;;;27.92;36.35
34658;BME280;20865;43.312;27.152;2022-07-10T03:17:44;99885.77;;;27.92;36.35
34658;BME280;20865;43.312;27.152;2022-07-10T03:20:11;99886.28;;;27.91;36.51
34658;BME280;20865;43.312;27.152;2022-07-10T03:22:39;99881.98;;;27.89;36.64
34658;BME280;20865;43.312;27.152;2022-07-10T03:25:07;99889.35;;;27.84;36.74
34658;BME280;20865;43.312;27.152;2022-07-10T03:27:34;99889.69;;;27.85;36.76
34658;BME280;20865;43.312;27.152;2022-07-10T03:30:03;99883.00;;;27.80;36.87
34658;BME280;20865;43.312;27.152;2022-07-10T03:32:31;99887.23;;;27.74;37.01
34658;BME280;20865;43.312;27.152;2022-07-10T03:34:59;99879.89;;;27.78;36.98
34658;BME280;20865;43.312;27.152;2022-07-10T03:37:27;99882.83;;;27.81;36.84
34658;BME280;20865;43.312;27.152;2022-07-10T03:39:54;99895.17;;;27.81;36.94
34658;BME280;20865;43.312;27.152;2022-07-10T03:42:22;99896.73;;;27.88;36.90
34658;BME280;20865;43.312;27.152;2022-07-10T03:44:50;99891.24;;;27.84;36.86
34658;BME280;20865;43.312;27.152;2022-07-10T03:47:17;99888.31;;;27.89;36.84
34658;BME280;20865;43.312;27.152;2022-07-10T03:49:45;99896.55;;;27.89;37.11
34658;BME280;20865;43.312;27.152;2022-07-10T03:52:12;99891.77;;;27.87;37.06
34658;BME280;20865;43.312;27.152;2022-07-10T03:54:40;99891.25;;;27.92;37.28
34658;BME280;20865;43.312;27.152;2022-07-10T03:57:08;99896.27;;;27.96;37.19
34658;BME280;20865;43.312;27.152;2022-07-10T03:59:53;99890.77;;;27.96;37.65
34658;BME280;20865;43.312;27.152;2022-07-10T04:02:21;99883.02;;;27.92;37.59
34658;BME280;20865;43.312;27.152;2022-07-10T04:04:49;99883.91;;;27.96;37.96
34658;BME280;20865;43.312;27.152;2022-07-10T04:07:17;99886.28;;;27.99;38.09
34658;BME280;20865;43.312;27.152;2022-07-10T04:09:45;99888.70;;;27.98;37.85
34658;BME280;20865;43.312;27.152;2022-07-10T04:12:13;99887.51;;;28.01;37.71
34658;BME280;20865;43.312;27.152;2022-07-10T04:14:40;99883.21;;;28.07;37.69
34658;BME280;20865;43.312;27.152;2022-07-10T04:17:08;99884.09;;;28.11;37.47
34658;BME280;20865;43.312;27.152;2022-07-10T04:19:35;99883.91;;;28.13;37.50
34658;BME280;20865;43.312;27.152;2022-07-10T04:22:03;99880.69;;;28.21;37.66
34658;BME280;20865;43.312;27.152;2022-07-10T04:24:31;99880.50;;;28.27;37.64
34658;BME280;20865;43.312;27.152;2022-07-10T04:26:59;99882.23;;;28.32;37.69
34658;BME280;20865;43.312;27.152;2022-07-10T04:29:26;99873.98;;;28.36;37.67
34658;BME280;20865;43.312;27.152;2022-07-10T04:31:54;99873.16;;;28.44;37.38
34658;BME280;20865;43.312;27.152;2022-07-10T04:34:22;99872.30;;;28.47;36.96
34658;BME280;20865;43.312;27.152;2022-07-10T04:36:49;99873.15;;;28.52;37.03
34658;BME280;20865;43.312;27.152;2022-07-10T04:39:17;99871.09;;;28.58;37.12
34658;BME280;20865;43.312;27.152;2022-07-10T04:41:44;99878.66;;;28.64;36.90
34658;BME280;20865;43.312;27.152;2022-07-10T04:44:12;99882.77;;;28.68;37.10
34658;BME280;20865;43.312;27.152;2022-07-10T04:46:40;99883.09;;;28.69;36.56
34658;BME280;20865;43.312;27.152;2022-07-10T04:49:07;99894.07;;;28.33;37.05
34658;BME280;20865;43.312;27.152;2022-07-10T04:51:35;99892.00;;;28.26;36.95
34658;BME280;20865;43.312;27.152;2022-07-10T04:54:03;99889.83;;;28.42;36.65
34658;BME280;20865;43.312;27.152;2022-07-10T04:56:31;99897.88;;;28.52;36.56
34658;BME280;20865;43.312;27.152;2022-07-10T04:58:59;99906.98;;;28.65;36.63
34658;BME280;20865;43.312;27.152;2022-07-10T05:01:27;99891.34;;;28.69;36.24
34658;BME280;20865;43.312;27.152;2022-07-10T05:03:55;99906.12;;;28.81;36.58
34658;BME280;20865;43.312;27.152;2022-07-10T05:06:23;99910.75;;;28.88;36.76
34658;BME280;20865;43.312;27.152;2022-07-10T05:08:51;99905.94;;;28.94;36.08
34658;BME280;20865;43.312;27.152;2022-07-10T05:11:19;99904.05;;;28.95;35.54
34658;BME280;20865;43.312;27.152;2022-07-10T05:13:47;99904.75;;;29.05;35.69
34658;BME280;20865;43.312;27.152;2022-07-10T05:16:15;99908.15;;;29.19;36.03
34658;BME280;20865;43.312;27.152;2022-07-10T05:18:43;99912.06;;;29.25;35.68
34658;BME280;20865;43.312;27.152;2022-07-10T05:21:11;99910.65;;;29.41;34.87
34658;BME280;20865;43.312;27.152;2022-07-10T05:23:39;99910.63;;;29.46;34.91
34658;BME280;20865;43.312;27.152;2022-07-10T05:26:07;99904.30;;;29.41;34.55
34658;BME280;20865;43.312;27.152;2022-07-10T05:28:34;99913.38;;;29.54;34.88
34658;BME280;20865;43.312;27.152;2022-07-10T05:31:02;99911.97;;;29.58;34.62
34658;BME280;20865;43.312;27.152;2022-07-10T05:33:30;99916.78;;;29.68;34.98
34658;BME280;20865;43.312;27.152;2022-07-10T05:35:59;99912.66;;;29.68;34.46
34658;BME280;20865;43.312;27.152;2022-07-10T05:38:26;99910.54;;;29.78;34.63
34658;BME280;20865;43.312;27.152;2022-07-10T05:40:54;99909.28;;;29.89;34.45
34658;BME280;20865;43.312;27.152;2022-07-10T05:43:22;99907.16;;;29.95;33.93
34658;BME280;20865;43.312;27.152;2022-07-10T05:45:49;99907.66;;;30.03;34.26
34658;BME280;20865;43.312;27.152;2022-07-10T05:48:17;99910.53;;;30.05;34.47
34658;BME280;20865;43.312;27.152;2022-07-10T05:50:46;99905.85;;;30.18;34.12
34658;BME280;20865;43.312;27.152;2022-07-10T05:53:13;99899.55;;;30.32;33.46
34658;BME280;20865;43.312;27.152;2022-07-10T05:55:41;99903.69;;;30.32;33.91
34658;BME280;20865;43.312;27.152;2022-07-10T05:58:08;99897.12;;;30.37;33.26
34658;BME280;20865;43.312;27.152;2022-07-10T06:00:37;99900.05;;;30.59;33.24
34658;BME280;20865;43.312;27.152;2022-07-10T06:03:04;99894.77;;;30.68;32.88
34658;BME280;20865;43.312;27.152;2022-07-10T06:05:32;99889.39;;;30.79;32.91
34658;BME280;20865;43.312;27.152;2022-07-10T06:08:00;99901.34;;;30.90;32.65
34658;BME280;20865;43.312;27.152;2022-07-10T06:10:28;99896.84;;;30.89;31.68
34658;BME280;20865;43.312;27.152;2022-07-10T06:12:55;99892.13;;;30.98;31.94
34658;BME280;20865;43.312;27.152;2022-07-10T06:15:23;99883.48;;;31.01;31.58
34658;BME280;20865;43.312;27.152;2022-07-10T06:17:51;99882.62;;;31.15;31.81
34658;BME280;20865;43.312;27.152;2022-07-10T06:20:18;99880.57;;;31.13;31.44
34658;BME280;20865;43.312;27.152;2022-07-10T06:22:46;99878.44;;;31.19;31.50
34658;BME280;20865;43.312;27.152;2022-07-10T06:25:14;99873.20;;;31.09;31.65
34658;BME280;20865;43.312;27.152;2022-07-10T06:27:41;99878.19;;;31.10;31.47
34658;BME280;20865;43.312;27.152;2022-07-10T06:30:10;99875.52;;;31.21;31.62
34658;BME280;20865;43.312;27.152;2022-07-10T06:32:39;99876.25;;;31.29;31.80
34658;BME280;20865;43.312;27.152;2022-07-10T06:35:07;99879.34;;;31.30;31.36
34658;BME280;20865;43.312;27.152;2022-07-10T06:37:35;99875.91;;;31.33;31.30
34658;BME280;20865;43.312;27.152;2022-07-10T06:40:03;99880.36;;;31.48;31.46
34658;BME280;20865;43.312;27.152;2022-07-10T06:42:32;99878.06;;;31.52;31.81
34658;BME280;20865;43.312;27.152;2022-07-10T06:45:01;99880.03;;;31.73;30.60
34658;BME280;20865;43.312;27.152;2022-07-10T06:47:29;99881.91;;;31.91;30.85
34658;BME280;20865;43.312;27.152;2022-07-10T06:50:14;99881.99;;;32.09;30.18
34658;BME280;20865;43.312;27.152;2022-07-10T06:52:42;99890.89;;;32.36;30.47
34658;BME280;20865;43.312;27.152;2022-07-10T06:55:10;99882.84;;;32.20;29.16
34658;BME280;20865;43.312;27.152;2022-07-10T06:57:38;99881.33;;;32.17;29.70
34658;BME280;20865;43.312;27.152;2022-07-10T07:00:07;99877.00;;;32.08;29.36
34658;BME280;20865;43.312;27.152;2022-07-10T07:02:36;99887.70;;;32.29;29.99
34658;BME280;20865;43.312;27.152;2022-07-10T07:05:05;99884.08;;;32.43;29.91
34658;BME280;20865;43.312;27.152;2022-07-10T07:07:34;99885.31;;;32.51;28.95
34658;BME280;20865;43.312;27.152;2022-07-10T07:10:03;99884.30;;;32.69;28.54
34658;BME280;20865;43.312;27.152;2022-07-10T07:12:31;99880.95;;;32.63;28.79
34658;BME280;20865;43.312;27.152;2022-07-10T07:14:59;99881.38;;;32.78;28.86
34658;BME280;20865;43.312;27.152;2022-07-10T07:17:27;99876.66;;;32.82;28.68
34658;BME280;20865;43.312;27.152;2022-07-10T07:20:02;99878.41;;;32.90;28.67
34658;BME280;20865;43.312;27.152;2022-07-10T07:22:48;99879.79;;;32.90;28.03
34658;BME280;20865;43.312;27.152;2022-07-10T07:25:34;99879.34;;;32.86;28.57
34658;BME280;20865;43.312;27.152;2022-07-10T07:28:01;99886.47;;;32.85;28.14
34658;BME280;20865;43.312;27.152;2022-07-10T07:30:30;99880.33;;;33.00;28.49
34658;BME280;20865;43.312;27.152;2022-07-10T07:32:57;99885.14;;;33.02;28.62
34658;BME280;20865;43.312;27.152;2022-07-10T07:35:25;99882.65;;;33.14;27.94
34658;BME280;20865;43.312;27.152;2022-07-10T07:37:54;99879.44;;;32.71;29.06
34658;BME280;20865;43.312;27.152;2022-07-10T07:40:22;99881.93;;;32.66;28.52
34658;BME280;20865;43.312;27.152;2022-07-10T07:42:51;99889.75;;;33.47;27.50
34658;BME280;20865;43.312;27.152;2022-07-10T07:45:19;99890.07;;;33.59;27.53
34658;BME280;20865;43.312;27.152;2022-07-10T07:47:55;99893.53;;;33.50;26.58
34658;BME280;20865;43.312;27.152;2022-07-10T07:50:32;99900.30;;;33.58;27.42
34658;BME280;20865;43.312;27.152;2022-07-10T07:52:56;99896.18;;;33.72;27.38
34658;BME280;20865;43.312;27.152;2022-07-10T07:55:24;99888.34;;;33.82;27.27
34658;BME280;20865;43.312;27.152;2022-07-10T07:57:53;99885.80;;;33.80;27.65
34658;BME280;20865;43.312;27.152;2022-07-10T08:00:26;99888.83;;;33.99;27.07
34658;BME280;20865;43.312;27.152;2022-07-10T08:02:52;99892.65;;;33.91;27.94
34658;BME280;20865;43.312;27.152;2022-07-10T08:05:20;99892.45;;;33.99;27.09
34658;BME280;20865;43.312;27.152;2022-07-10T08:07:52;99881.45;;;34.12;27.75
34658;BME280;20865;43.312;27.152;2022-07-10T08:10:22;99889.77;;;34.19;27.20
34658;BME280;20865;43.312;27.152;2022-07-10T08:12:51;99885.34;;;34.31;26.71
34658;BME280;20865;43.312;27.152;2022-07-10T08:15:20;99880.66;;;34.38;27.03
34658;BME280;20865;43.312;27.152;2022-07-10T08:17:50;99881.09;;;34.49;27.08
34658;BME280;20865;43.312;27.152;2022-07-10T08:20:17;99869.70;;;34.61;26.75
34658;BME280;20865;43.312;27.152;2022-07-10T08:22:46;99872.06;;;34.84;27.35
34658;BME280;20865;43.312;27.152;2022-07-10T08:25:15;99871.30;;;34.86;26.14
34658;BME280;20865;43.312;27.152;2022-07-10T08:27:42;99869.91;;;34.86;25.70
34658;BME280;20865;43.312;27.152;2022-07-10T08:30:10;99873.33;;;34.88;25.95
34658;BME280;20865;43.312;27.152;2022-07-10T08:32:39;99869.17;;;34.88;26.11
34658;BME280;20865;43.312;27.152;2022-07-10T08:35:08;99868.21;;;34.92;25.89
34658;BME280;20865;43.312;27.152;2022-07-10T08:37:40;99867.38;;;35.04;25.29
34658;BME280;20865;43.312;27.152;2022-07-10T08:40:13;99872.59;;;35.03;26.10
34658;BME280;20865;43.312;27.152;2022-07-10T08:42:44;99864.25;;;35.10;25.97
34658;BME280;20865;43.312;27.152;2022-07-10T08:45:12;99868.84;;;35.14;26.33
34658;BME280;20865;43.312;27.152;2022-07-10T08:47:41;99874.81;;;35.11;27.72
34658;BME280;20865;43.312;27.152;2022-07-10T08:50:18;99876.97;;;35.08;25.46
34658;BME280;20865;43.312;27.152;2022-07-10T08:52:48;99871.00;;;35.12;26.94
34658;BME280;20865;43.312;27.152;2022-07-10T08:55:16;99858.20;;;35.46;26.18
34658;BME280;20865;43.312;27.152;2022-07-10T08:57:45;99863.50;;;35.19;26.68
34658;BME280;20865;43.312;27.152;2022-07-10T09:00:14;99872.04;;;35.11;26.09
34658;BME280;20865;43.312;27.152;2022-07-10T09:02:42;99869.25;;;35.17;25.76
34658;BME280;20865;43.312;27.152;2022-07-10T09:05:10;99870.45;;;35.12;25.88
34658;BME280;20865;43.312;27.152;2022-07-10T09:07:37;99860.20;;;35.13;25.80
34658;BME280;20865;43.312;27.152;2022-07-10T09:10:08;99858.59;;;35.07;26.18
34658;BME280;20865;43.312;27.152;2022-07-10T09:12:53;99859.55;;;35.17;25.75
34658;BME280;20865;43.312;27.152;2022-07-10T09:15:24;99858.45;;;35.25;25.65
34658;BME280;20865;43.312;27.152;2022-07-10T09:17:57;99863.02;;;35.35;25.29
34658;BME280;20865;43.312;27.152;2022-07-10T09:20:34;99845.38;;;35.39;24.30
34658;BME280;20865;43.312;27.152;2022-07-10T09:23:19;99849.53;;;35.45;24.68
34658;BME280;20865;43.312;27.152;2022-07-10T09:25:53;99851.47;;;35.51;24.56
34658;BME280;20865;43.312;27.152;2022-07-10T09:28:22;99844.09;;;35.54;24.43
34658;BME280;20865;43.312;27.152;2022-07-10T09:30:51;99842.58;;;35.59;25.19
34658;BME280;20865;43.312;27.152;2022-07-10T09:33:27;99848.97;;;35.59;24.66
34658;BME280;20865;43.312;27.152;2022-07-10T09:36:08;99842.81;;;35.57;24.18
34658;BME280;20865;43.312;27.152;2022-07-10T09:41:20;99848.64;;;35.65;23.42
34658;BME280;20865;43.312;27.152;2022-07-10T09:43:50;99850.41;;;35.75;24.14
34658;BME280;20865;43.312;27.152;2022-07-10T09:46:20;99849.44;;;35.94;24.30
34658;BME280;20865;43.312;27.152;2022-07-10T09:48:48;99852.86;;;35.96;23.72
34658;BME280;20865;43.312;27.152;2022-07-10T09:51:17;99852.66;;;35.91;22.42
34658;BME280;20865;43.312;27.152;2022-07-10T09:53:45;99853.22;;;35.68;22.73
34658;BME280;20865;43.312;27.152;2022-07-10T09:56:13;99840.76;;;35.77;23.46
34658;BME280;20865;43.312;27.152;2022-07-10T09:58:40;99851.37;;;35.94;24.05
34658;BME280;20865;43.312;27.152;2022-07-10T10:01:09;99849.23;;;35.96;23.16
34658;BME280;20865;43.312;27.152;2022-07-10T10:03:38;99841.64;;;35.94;23.52
34658;BME280;20865;43.312;27.152;2022-07-10T10:06:10;99839.84;;;35.90;23.17
34658;BME280;20865;43.312;27.152;2022-07-10T10:11:17;99839.94;;;35.70;23.10
34658;BME280;20865;43.312;27.152;2022-07-10T10:13:44;99838.12;;;35.96;22.92
34658;BME280;20865;43.312;27.152;2022-07-10T10:16:13;99829.45;;;35.50;23.72
34658;BME280;20865;43.312;27.152;2022-07-10T10:18:42;99836.23;;;35.31;24.01
34658;BME280;20865;43.312;27.152;2022-07-10T10:21:28;99827.75;;;35.42;24.24
34658;BME280;20865;43.312;27.152;2022-07-10T10:23:56;99836.19;;;35.45;24.21
34658;BME280;20865;43.312;27.152;2022-07-10T10:26:24;99838.23;;;35.53;23.44
34658;BME280;20865;43.312;27.152;2022-07-10T10:28:53;99830.28;;;35.64;23.40
34658;BME280;20865;43.312;27.152;2022-07-10T10:31:24;99831.27;;;35.76;23.15
34658;BME280;20865;43.312;27.152;2022-07-10T10:33:54;99825.34;;;35.88;23.17
34658;BME280;20865;43.312;27.152;2022-07-10T10:39:17;99829.38;;;35.70;22.42
34658;BME280;20865;43.312;27.152;2022-07-10T10:41:50;99822.86;;;35.51;22.74
34658;BME280;20865;43.312;27.152;2022-07-10T10:44:20;99815.52;;;35.63;23.32
34658;BME280;20865;43.312;27.152;2022-07-10T10:47:03;99822.88;;;35.67;22.30
34658;BME280;20865;43.312;27.152;2022-07-10T10:49:50;99814.91;;;35.61;22.94
34658;BME280;20865;43.312;27.152;2022-07-10T10:52:20;99813.69;;;35.66;22.88
34658;BME280;20865;43.312;27.152;2022-07-10T10:57:38;99809.58;;;35.53;23.32
34658;BME280;20865;43.312;27.152;2022-07-10T11:00:08;99816.58;;;35.40;23.31
34658;BME280;20865;43.312;27.152;2022-07-10T11:02:38;99814.05;;;35.25;23.59
34658;BME280;20865;43.312;27.152;2022-07-10T11:07:58;99803.19;;;35.52;23.15
34658;BME280;20865;43.312;27.152;2022-07-10T11:13:03;99803.63;;;35.88;23.53
34658;BME280;20865;43.312;27.152;2022-07-10T11:15:33;99796.00;;;35.99;24.16
34658;BME280;20865;43.312;27.152;2022-07-10T11:18:15;99803.09;;;36.11;23.28
34658;BME280;20865;43.312;27.152;2022-07-10T11:20:44;99799.47;;;36.10;22.49
34658;BME280;20865;43.312;27.152;2022-07-10T11:26:08;99802.81;;;36.19;22.63
34658;BME280;20865;43.312;27.152;2022-07-10T11:31:21;99801.13;;;35.79;22.60
34658;BME280;20865;43.312;27.152;2022-07-10T11:33:51;99797.47;;;35.86;22.11
34658;BME280;20865;43.312;27.152;2022-07-10T11:36:21;99795.70;;;35.91;22.31
34658;BME280;20865;43.312;27.152;2022-07-10T11:38:56;99795.27;;;35.78;22.59
34658;BME280;20865;43.312;27.152;2022-07-10T11:41:21;99786.84;;;35.76;22.96
34658;BME280;20865;43.312;27.152;2022-07-10T11:43:51;99791.88;;;35.70;22.34
34658;BME280;20865;43.312;27.152;2022-07-10T11:46:20;99788.90;;;35.71;22.55
34658;BME280;20865;43.312;27.152;2022-07-10T11:48:50;99788.13;;;35.73;22.28
34658;BME280;20865;43.312;27.152;2022-07-10T11:51:34;99794.52;;;35.74;22.59
34658;BME280;20865;43.312;27.152;2022-07-10T11:54:14;99798.34;;;35.79;22.69
34658;BME280;20865;43.312;27.152;2022-07-10T11:56:49;99782.02;;;35.58;23.00
34658;BME280;20865;43.312;27.152;2022-07-10T11:59:25;99792.28;;;35.58;23.37
34658;BME280;20865;43.312;27.152;2022-07-10T12:01:56;99786.52;;;35.52;23.42
34658;BME280;20865;43.312;27.152;2022-07-10T12:04:24;99792.92;;;35.53;22.83
34658;BME280;20865;43.312;27.152;2022-07-10T12:06:53;99796.23;;;35.46;21.97
34658;BME280;20865;43.312;27.152;2022-07-10T12:09:23;99794.20;;;35.50;22.43
34658;BME280;20865;43.312;27.152;2022-07-10T12:12:05;99790.38;;;35.51;22.16
34658;BME280;20865;43.312;27.152;2022-07-10T12:14:36;99788.86;;;35.55;22.38
34658;BME280;20865;43.312;27.152;2022-07-10T12:17:10;99777.01;;;35.58;22.97
34658;BME280;20865;43.312;27.152;2022-07-10T12:19:39;99787.78;;;35.57;23.87
34658;BME280;20865;43.312;27.152;2022-07-10T12:22:07;99785.67;;;35.52;22.76
34658;BME280;20865;43.312;27.152;2022-07-10T12:24:34;99774.37;;;35.53;23.23
34658;BME280;20865;43.312;27.152;2022-07-10T12:27:03;99772.41;;;35.61;23.64
34658;BME280;20865;43.312;27.152;2022-07-10T12:29:31;99774.56;;;35.45;22.90
34658;BME280;20865;43.312;27.152;2022-07-10T12:31:59;99777.75;;;35.49;22.32
34658;BME280;20865;43.312;27.152;2022-07-10T12:34:37;99776.47;;;35.58;22.45
34658;BME280;20865;43.312;27.152;2022-07-10T12:37:13;99759.40;;;35.48;22.42
34658;BME280;20865;43.312;27.152;2022-07-10T12:39:50;99777.14;;;35.53;22.16
34658;BME280;20865;43.312;27.152;2022-07-10T12:42:27;99777.45;;;35.48;22.79
34658;BME280;20865;43.312;27.152;2022-07-10T12:45:12;99776.34;;;35.33;23.37
34658;BME280;20865;43.312;27.152;2022-07-10T12:47:47;99771.17;;;35.14;23.37
34658;BME280;20865;43.312;27.152;2022-07-10T12:50:16;99772.91;;;35.15;23.94
34658;BME280;20865;43.312;27.152;2022-07-10T12:52:47;99772.99;;;35.11;24.23
34658;BME280;20865;43.312;27.152;2022-07-10T12:55:16;99771.82;;;35.16;24.32
34658;BME280;20865;43.312;27.152;2022-07-10T12:57:58;99771.69;;;35.20;24.46
34658;BME280;20865;43.312;27.152;2022-07-10T13:00:28;99763.19;;;35.15;24.77
34658;BME280;20865;43.312;27.152;2022-07-10T13:03:02;99772.48;;;35.12;23.84
34658;BME280;20865;43.312;27.152;2022-07-10T13:05:41;99766.40;;;35.12;23.78
34658;BME280;20865;43.312;27.152;2022-07-10T13:08:17;99770.34;;;35.07;24.41
34658;BME280;20865;43.312;27.152;2022-07-10T13:10:52;99765.69;;;35.01;24.17
34658;BME280;20865;43.312;27.152;2022-07-10T13:13:19;99764.29;;;34.94;23.79
34658;BME280;20865;43.312;27.152;2022-07-10T13:15:48;99761.39;;;34.98;23.52
34658;BME280;20865;43.312;27.152;2022-07-10T13:18:24;99759.17;;;34.91;24.17
34658;BME280;20865;43.312;27.152;2022-07-10T13:20:54;99762.02;;;34.94;24.09
34658;BME280;20865;43.312;27.152;2022-07-10T13:23:25;99760.98;;;34.95;24.12
34658;BME280;20865;43.312;27.152;2022-07-10T13:25:54;99759.17;;;34.91;24.15
34658;BME280;20865;43.312;27.152;2022-07-10T13:28:22;99763.34;;;34.91;24.51